createdAt,value
2019-05-18T00:00:18.797Z,12.60
2019-05-18T00:02:48.413Z,12.60
2019-05-18T00:05:18.665Z,12.50
2019-05-18T00:07:48.487Z,12.50
2019-05-18T00:10:19.423Z,12.40
2019-05-18T00:12:48.954Z,12.40
2019-05-18T00:15:18.787Z,12.40
2019-05-18T00:17:48.462Z,12.40
2019-05-18T00:20:18.904Z,12.40
2019-05-18T00:22:48.477Z,12.30
2019-05-18T00:25:18.757Z,12.30
2019-05-18T00:27:48.455Z,12.30
2019-05-18T00:30:18.674Z,12.20
2019-05-18T00:32:48.147Z,12.30
2019-05-18T00:35:18.740Z,12.20
2019-05-18T00:37:48.431Z,12.20
2019-05-18T00:40:18.773Z,12.20
2019-05-18T00:42:48.582Z,12.20
2019-05-18T00:45:18.767Z,12.20
2019-05-18T00:47:48.388Z,12.10
2019-05-18T00:50:18.737Z,11.50
2019-05-18T00:52:49.519Z,12.00
2019-05-18T00:55:19.197Z,11.90
2019-05-18T00:57:48.732Z,11.80
2019-05-18T01:00:18.892Z,11.80
2019-05-18T01:02:48.575Z,11.80
2019-05-18T01:05:18.893Z,11.80
2019-05-18T01:07:48.602Z,11.80
2019-05-18T01:10:18.826Z,11.80
2019-05-18T01:12:48.544Z,11.80
2019-05-18T01:15:18.810Z,11.80
2019-05-18T01:17:56.986Z,11.80
2019-05-18T01:20:19.764Z,11.80
2019-05-18T01:22:49.498Z,11.70
2019-05-18T01:25:18.976Z,11.70
2019-05-18T01:27:48.685Z,11.70
2019-05-18T01:30:18.877Z,11.60
2019-05-18T01:32:48.564Z,11.60
2019-05-18T01:35:18.837Z,11.60
2019-05-18T01:37:48.586Z,11.60
2019-05-18T01:40:19.251Z,11.60
2019-05-18T01:42:48.760Z,11.60
2019-05-18T01:45:18.961Z,11.60
2019-05-18T01:47:48.658Z,11.60
2019-05-18T01:50:18.838Z,11.60
2019-05-18T01:52:48.570Z,11.50
2019-05-18T01:55:18.859Z,11.50
2019-05-18T01:57:48.634Z,11.40
2019-05-18T02:00:18.899Z,11.40
2019-05-18T02:02:48.647Z,11.40
2019-05-18T02:05:18.989Z,11.30
2019-05-18T02:07:48.636Z,11.30
2019-05-18T02:10:18.947Z,11.30
2019-05-18T02:12:48.571Z,11.30
2019-05-18T02:15:18.872Z,11.30
2019-05-18T02:17:48.589Z,11.20
2019-05-18T02:20:19.394Z,11.20
2019-05-18T02:22:48.928Z,11.20
2019-05-18T02:25:18.826Z,11.20
2019-05-18T02:27:48.501Z,11.20
2019-05-18T02:30:18.955Z,11.20
2019-05-18T02:32:48.568Z,11.20
2019-05-18T02:35:18.844Z,11.20
2019-05-18T02:37:48.646Z,11.20
2019-05-18T02:40:18.909Z,11.20
2019-05-18T02:42:48.665Z,11.20
2019-05-18T02:45:18.990Z,11.20
2019-05-18T02:47:48.674Z,11.10
2019-05-18T02:50:18.965Z,11.10
2019-05-18T02:52:48.702Z,11.10
2019-05-18T02:55:19.052Z,11.10
2019-05-18T02:57:48.646Z,11.00
2019-05-18T03:00:18.960Z,11.00
2019-05-18T03:02:48.750Z,10.90
2019-05-18T03:05:19.071Z,10.90
2019-05-18T03:07:48.683Z,10.90
2019-05-18T03:10:19.728Z,10.80
2019-05-18T03:12:49.171Z,10.80
2019-05-18T03:15:19.246Z,10.80
2019-05-18T03:17:48.791Z,10.80
2019-05-18T03:20:19.022Z,10.90
2019-05-18T03:22:48.724Z,10.90
2019-05-18T03:25:18.949Z,10.90
2019-05-18T03:27:48.753Z,10.90
2019-05-18T03:30:19.024Z,10.80
2019-05-18T03:32:48.744Z,10.80
2019-05-18T03:35:19.001Z,10.70
2019-05-18T03:37:48.826Z,10.80
2019-05-18T03:40:19.086Z,10.80
2019-05-18T03:42:48.749Z,10.70
2019-05-18T03:45:18.997Z,10.70
2019-05-18T03:47:48.723Z,10.70
2019-05-18T03:50:19.060Z,10.70
2019-05-18T03:52:48.891Z,10.70
2019-05-18T03:55:19.065Z,10.60
2019-05-18T03:57:48.909Z,10.70
2019-05-18T04:00:19.083Z,10.70
2019-05-18T04:02:48.758Z,10.70
2019-05-18T04:05:19.095Z,10.70
2019-05-18T04:10:24.445Z,10.60
2019-05-18T04:12:54.172Z,10.60
2019-05-18T04:15:23.897Z,10.60
2019-05-18T04:17:53.445Z,10.70
2019-05-18T04:20:22.916Z,10.60
2019-05-18T04:22:52.390Z,10.70
2019-05-18T04:25:22.048Z,10.70
2019-05-18T04:27:51.813Z,10.70
2019-05-18T04:30:21.423Z,10.60
2019-05-18T04:32:50.864Z,10.60
2019-05-18T04:35:20.314Z,10.60
2019-05-18T04:37:49.911Z,10.60
2019-05-18T04:40:19.413Z,10.70
2019-05-18T04:42:48.826Z,10.70
2019-05-18T04:45:19.078Z,10.80
2019-05-18T04:47:49.080Z,10.80
2019-05-18T04:50:19.113Z,10.80
2019-05-18T04:52:48.807Z,10.80
2019-05-18T04:55:19.095Z,10.80
2019-05-18T04:57:48.823Z,10.80
2019-05-18T05:00:19.107Z,10.80
2019-05-18T05:02:48.801Z,10.80
2019-05-18T05:05:19.119Z,10.90
2019-05-18T05:07:48.800Z,11.00
2019-05-18T05:10:19.097Z,11.00
2019-05-18T05:12:48.819Z,11.10
2019-05-18T05:15:19.321Z,11.20
2019-05-18T05:17:48.939Z,11.30
2019-05-18T05:20:20.297Z,11.30
2019-05-18T05:22:49.961Z,11.30
2019-05-18T05:25:19.435Z,11.40
2019-05-18T05:27:49.130Z,11.40
2019-05-18T05:30:19.227Z,11.50
2019-05-18T05:32:48.903Z,11.50
2019-05-18T05:35:19.310Z,11.60
2019-05-18T05:37:48.943Z,11.70
2019-05-18T05:40:19.223Z,11.70
2019-05-18T05:42:48.829Z,11.80
2019-05-18T05:45:19.246Z,11.80
2019-05-18T05:47:48.879Z,11.90
2019-05-18T05:50:33.060Z,12.00
2019-05-18T05:52:50.359Z,12.00
2019-05-18T05:55:20.160Z,12.10
2019-05-18T05:57:49.643Z,12.20
2019-05-18T06:00:19.346Z,12.30
2019-05-18T06:02:49.057Z,12.40
2019-05-18T06:05:19.255Z,12.50
2019-05-18T06:07:48.914Z,12.60
2019-05-18T06:10:19.258Z,12.70
2019-05-18T06:12:49.722Z,12.90
2019-05-18T06:15:19.432Z,12.90
2019-05-18T06:17:49.016Z,12.90
2019-05-18T06:20:19.373Z,13.00
2019-05-18T06:22:50.833Z,13.10
2019-05-18T06:25:20.460Z,13.20
2019-05-18T06:27:50.053Z,13.30
2019-05-18T06:30:19.678Z,13.40
2019-05-18T06:32:49.302Z,13.40
2019-05-18T06:35:19.548Z,13.50
2019-05-18T06:37:49.060Z,13.60
2019-05-18T06:40:19.289Z,13.70
2019-05-18T06:42:49.023Z,13.80
2019-05-18T06:45:19.519Z,13.90
2019-05-18T06:47:49.084Z,14.00
2019-05-18T06:50:30.043Z,14.10
2019-05-18T06:52:59.711Z,14.20
2019-05-18T06:55:29.166Z,14.40
2019-05-18T06:57:58.672Z,14.60
2019-05-18T07:00:28.115Z,14.70
2019-05-18T07:02:57.709Z,14.80
2019-05-18T07:05:27.213Z,14.90
2019-05-18T07:07:57.228Z,14.90
2019-05-18T07:10:27.340Z,15.00
2019-05-18T07:12:57.017Z,15.10
2019-05-18T07:15:26.571Z,15.20
2019-05-18T07:17:56.129Z,15.30
2019-05-18T07:20:25.654Z,15.40
2019-05-18T07:22:55.215Z,15.40
2019-05-18T07:25:25.315Z,15.50
2019-05-18T07:27:55.273Z,15.60
2019-05-18T07:30:25.413Z,15.70
2019-05-18T07:32:55.261Z,15.80
2019-05-18T07:35:24.738Z,15.90
2019-05-18T07:37:54.367Z,16.00
2019-05-18T07:40:24.041Z,16.10
2019-05-18T07:42:53.509Z,16.10
2019-05-18T07:45:23.299Z,16.20
2019-05-18T07:47:53.221Z,16.30
2019-05-18T07:50:22.775Z,16.30
2019-05-18T07:52:52.327Z,16.30
2019-05-18T07:55:22.438Z,16.40
2019-05-18T07:57:52.203Z,16.50
2019-05-18T08:00:21.727Z,16.60
2019-05-18T08:02:51.248Z,16.70
2019-05-18T08:05:20.789Z,16.80
2019-05-18T08:07:50.479Z,17.00
2019-05-18T08:10:23.584Z,17.10
2019-05-18T08:12:53.252Z,17.30
2019-05-18T08:15:22.768Z,17.30
2019-05-18T08:17:52.542Z,17.40
2019-05-18T08:20:22.274Z,17.60
2019-05-18T08:22:51.794Z,17.70
2019-05-18T08:25:21.341Z,17.80
2019-05-18T08:27:50.792Z,17.90
2019-05-18T08:30:20.477Z,18.00
2019-05-18T08:32:50.238Z,18.20
2019-05-18T08:35:19.741Z,18.20
2019-05-18T08:37:49.559Z,18.40
2019-05-18T08:40:19.576Z,18.50
2019-05-18T08:42:49.227Z,18.50
2019-05-18T08:45:19.465Z,18.60
2019-05-18T08:47:49.164Z,18.70
2019-05-18T08:50:19.471Z,18.60
2019-05-18T08:52:49.233Z,18.60
2019-05-18T08:55:19.627Z,18.70
2019-05-18T08:57:49.207Z,18.80
2019-05-18T09:00:19.479Z,18.80
2019-05-18T09:02:49.323Z,18.70
2019-05-18T09:05:19.545Z,18.80
2019-05-18T09:07:49.270Z,19.00
2019-05-18T09:10:19.561Z,19.20
2019-05-18T09:12:49.288Z,19.40
2019-05-18T09:15:19.618Z,19.50
2019-05-18T09:17:49.352Z,19.60
2019-05-18T09:20:19.519Z,19.70
2019-05-18T09:22:49.276Z,19.70
2019-05-18T09:25:19.531Z,19.70
2019-05-18T09:27:49.268Z,19.60
2019-05-18T09:30:19.532Z,19.40
2019-05-18T09:32:49.344Z,19.40
2019-05-18T09:35:20.076Z,19.50
2019-05-18T09:37:49.661Z,19.40
2019-05-18T09:40:21.508Z,19.40
2019-05-18T09:42:51.379Z,19.50
2019-05-18T09:45:21.353Z,19.60
2019-05-18T09:47:51.283Z,19.70
2019-05-18T09:50:20.907Z,19.70
2019-05-18T09:52:50.498Z,19.80
2019-05-18T09:55:20.385Z,19.80
2019-05-18T09:57:50.032Z,19.80
2019-05-18T10:00:19.663Z,19.80
2019-05-18T10:02:49.563Z,19.80
2019-05-18T10:05:19.732Z,19.90
2019-05-18T10:07:50.959Z,20.00
2019-05-18T10:10:20.577Z,20.10
2019-05-18T10:12:50.119Z,20.30
2019-05-18T10:15:19.725Z,20.40
2019-05-18T10:17:50.389Z,20.50
2019-05-18T10:20:20.414Z,20.50
2019-05-18T10:22:58.976Z,20.60
2019-05-18T10:25:21.429Z,20.20
2019-05-18T10:27:50.930Z,20.00
2019-05-18T10:30:21.036Z,19.90
2019-05-18T10:32:50.481Z,20.00
2019-05-18T10:35:20.400Z,20.10
2019-05-18T10:37:49.870Z,20.20
2019-05-18T10:40:19.694Z,20.20
2019-05-18T10:42:49.408Z,20.30
2019-05-18T10:45:19.805Z,20.40
2019-05-18T10:47:49.455Z,20.50
2019-05-18T10:50:19.751Z,20.60
2019-05-18T10:52:49.502Z,20.50
2019-05-18T10:55:21.329Z,20.40
2019-05-18T10:57:50.814Z,20.60
2019-05-18T11:00:21.206Z,20.60
2019-05-18T11:02:50.683Z,20.50
2019-05-18T11:05:20.151Z,20.40
2019-05-18T11:07:49.695Z,20.50
2019-05-18T11:10:19.820Z,20.50
2019-05-18T11:12:49.568Z,20.60
2019-05-18T11:15:19.710Z,20.80
2019-05-18T11:17:49.429Z,20.90
2019-05-18T11:20:19.701Z,21.00
2019-05-18T11:22:49.227Z,21.00
2019-05-18T11:25:20.560Z,21.20
2019-05-18T11:27:50.431Z,21.20
2019-05-18T11:30:20.075Z,21.40
2019-05-18T11:32:50.354Z,21.40
2019-05-18T11:35:20.586Z,21.60
2019-05-18T11:37:50.031Z,21.90
2019-05-18T11:40:19.810Z,21.90
2019-05-18T11:42:51.034Z,21.80
2019-05-18T11:45:21.522Z,21.90
2019-05-18T11:47:51.082Z,22.00
2019-05-18T11:50:20.799Z,22.00
2019-05-18T11:52:50.510Z,22.20
2019-05-18T11:55:20.419Z,22.40
2019-05-18T11:57:49.986Z,22.70
2019-05-18T12:00:19.811Z,22.70
2019-05-18T12:02:49.479Z,22.90
2019-05-18T12:05:19.794Z,23.00
2019-05-18T12:07:49.841Z,23.30
2019-05-18T12:10:19.916Z,23.80
2019-05-18T12:12:49.586Z,23.90
2019-05-18T12:15:20.112Z,24.10
2019-05-18T12:17:49.619Z,23.90
2019-05-18T12:20:19.995Z,24.00
2019-05-18T12:22:49.653Z,23.70
2019-05-18T12:25:19.859Z,23.80
2019-05-18T12:27:49.720Z,23.90
2019-05-18T12:30:20.588Z,24.10
2019-05-18T12:32:50.063Z,24.40
2019-05-18T12:35:19.927Z,24.40
2019-05-18T12:37:49.940Z,24.80
2019-05-18T12:40:20.044Z,25.00
2019-05-18T12:42:49.928Z,25.00
2019-05-18T12:45:20.106Z,25.00
2019-05-18T12:47:49.815Z,24.80
2019-05-18T12:50:19.895Z,24.70
2019-05-18T12:52:49.655Z,24.70
2019-05-18T12:55:19.899Z,24.70
2019-05-18T12:57:49.676Z,24.50
2019-05-18T13:00:20.158Z,24.30
2019-05-18T13:02:49.734Z,24.00
2019-05-18T13:05:19.975Z,23.80
2019-05-18T13:07:49.738Z,23.70
2019-05-18T13:10:20.206Z,23.80
2019-05-18T13:12:49.685Z,23.70
2019-05-18T13:15:20.230Z,23.60
2019-05-18T13:17:50.011Z,23.40
2019-05-18T13:20:20.394Z,23.30
2019-05-18T13:22:49.853Z,23.40
2019-05-18T13:25:20.578Z,23.50
2019-05-18T13:27:50.386Z,23.60
2019-05-18T13:30:20.189Z,23.10
2019-05-18T13:32:49.952Z,23.30
2019-05-18T13:35:20.213Z,23.60
2019-05-18T13:37:50.707Z,23.40
2019-05-18T13:40:20.331Z,23.40
2019-05-18T13:42:50.079Z,23.60
2019-05-18T13:45:20.280Z,23.70
2019-05-18T13:47:49.993Z,23.90
2019-05-18T13:50:20.225Z,24.10
2019-05-18T13:52:49.736Z,23.80
2019-05-18T13:55:19.989Z,23.40
2019-05-18T13:57:49.803Z,23.40
2019-05-18T14:00:20.089Z,23.40
2019-05-18T14:02:49.886Z,23.60
2019-05-18T14:05:20.059Z,23.60
2019-05-18T14:07:49.754Z,23.40
2019-05-18T14:10:20.387Z,23.50
2019-05-18T14:12:49.787Z,23.60
2019-05-18T14:15:22.731Z,23.40
2019-05-18T14:17:51.211Z,23.20
2019-05-18T14:20:20.909Z,23.10
2019-05-18T14:22:50.820Z,23.10
2019-05-18T14:25:20.469Z,23.10
2019-05-18T14:27:50.268Z,23.20
2019-05-18T14:30:22.676Z,23.30
2019-05-18T14:32:52.186Z,23.50
2019-05-18T14:35:22.049Z,23.70
2019-05-18T14:37:51.701Z,23.50
2019-05-18T14:40:21.244Z,23.20
2019-05-18T14:42:51.073Z,23.20
2019-05-18T14:45:20.893Z,23.10
2019-05-18T14:47:50.335Z,23.20
2019-05-18T14:50:20.147Z,23.10
2019-05-18T14:52:49.838Z,23.10
2019-05-18T14:55:32.849Z,23.20
2019-05-18T14:57:51.637Z,23.00
2019-05-18T15:00:21.496Z,23.00
2019-05-18T15:02:51.311Z,22.90
2019-05-18T15:05:21.029Z,23.20
2019-05-18T15:07:51.070Z,23.40
2019-05-18T15:10:20.869Z,23.30
2019-05-18T15:12:50.439Z,23.40
2019-05-18T15:15:20.422Z,23.40
2019-05-18T15:17:50.191Z,23.50
2019-05-18T15:20:22.115Z,23.50
2019-05-18T15:22:51.823Z,23.30
2019-05-18T15:27:43.460Z,23.20
2019-05-18T15:30:15.278Z,23.40
2019-05-18T15:32:45.243Z,23.30
2019-05-18T15:35:16.614Z,23.30
2019-05-18T15:37:46.130Z,23.30
2019-05-18T15:40:15.886Z,23.20
2019-05-18T15:42:45.762Z,23.00
2019-05-18T15:45:15.319Z,23.00
2019-05-18T15:47:44.877Z,22.90
2019-05-18T15:50:14.410Z,22.70
2019-05-18T15:52:43.940Z,22.50
2019-05-18T15:55:13.578Z,22.30
2019-05-18T15:57:43.066Z,22.30
2019-05-18T16:00:12.550Z,22.30
2019-05-18T16:02:42.118Z,22.30
2019-05-18T16:05:11.510Z,22.20
2019-05-18T16:07:41.121Z,22.10
2019-05-18T16:10:11.001Z,22.10
2019-05-18T16:12:40.918Z,22.10
2019-05-18T16:15:11.485Z,22.20
2019-05-18T16:17:41.026Z,22.40
2019-05-18T16:20:10.474Z,22.40
2019-05-18T16:22:40.302Z,22.30
2019-05-18T16:25:10.054Z,22.20
2019-05-18T16:27:39.594Z,22.00
2019-05-18T16:30:09.197Z,21.90
2019-05-18T16:32:39.109Z,21.80
2019-05-18T16:35:09.090Z,21.70
2019-05-18T16:37:38.551Z,21.60
2019-05-18T16:40:08.105Z,21.60
2019-05-18T16:42:37.661Z,21.50
2019-05-18T16:45:07.474Z,21.70
2019-05-18T16:47:37.211Z,21.70
2019-05-18T16:50:07.572Z,21.60
2019-05-18T16:52:39.183Z,21.80
2019-05-18T16:55:08.531Z,21.90
2019-05-18T16:57:38.423Z,22.00
2019-05-18T17:00:15.686Z,21.90
2019-05-18T17:05:42.743Z,21.70
2019-05-18T17:08:12.324Z,21.60
2019-05-18T17:10:42.158Z,21.80
2019-05-18T17:13:12.516Z,21.60
2019-05-18T17:15:42.245Z,21.50
2019-05-18T17:18:12.097Z,21.60
2019-05-18T17:20:42.987Z,21.40
2019-05-18T17:23:12.616Z,21.30
2019-05-18T17:25:42.438Z,21.20
2019-05-18T17:28:12.114Z,21.20
2019-05-18T17:30:42.769Z,21.10
2019-05-18T17:33:12.674Z,21.10
2019-05-18T17:35:42.337Z,21.00
2019-05-18T17:38:11.829Z,20.90
2019-05-18T17:40:41.470Z,20.80
2019-05-18T17:43:13.806Z,20.70
2019-05-18T17:45:43.348Z,20.70
2019-05-18T17:48:13.132Z,21.00
2019-05-18T17:50:42.907Z,21.30
2019-05-18T17:53:12.511Z,21.10
2019-05-18T17:55:42.267Z,21.00
2019-05-18T17:58:11.799Z,21.00
2019-05-18T18:00:41.314Z,20.80
2019-05-18T18:03:11.736Z,20.70
2019-05-18T18:05:41.597Z,20.40
2019-05-18T18:08:11.432Z,20.10
2019-05-18T18:10:41.076Z,19.90
2019-05-18T18:13:10.624Z,19.70
2019-05-18T18:15:40.526Z,19.60
2019-05-18T18:18:10.418Z,19.40
2019-05-18T18:20:40.266Z,19.30
2019-05-18T18:23:10.037Z,19.20
2019-05-18T18:25:40.289Z,19.10
2019-05-18T18:28:10.141Z,19.00
2019-05-18T18:30:39.675Z,18.90
2019-05-18T18:33:10.337Z,18.80
2019-05-18T18:35:40.043Z,18.70
2019-05-18T18:38:10.130Z,18.60
2019-05-18T18:40:39.732Z,18.60
2019-05-18T18:43:09.263Z,18.50
2019-05-18T18:45:39.200Z,18.40
2019-05-18T18:48:08.683Z,18.30
2019-05-18T18:50:38.379Z,18.30
2019-05-18T18:53:08.234Z,18.20
2019-05-18T18:55:37.682Z,18.10
2019-05-18T18:58:07.344Z,18.10
2019-05-18T19:00:37.038Z,18.00
2019-05-18T19:03:06.719Z,18.00
2019-05-18T19:05:36.427Z,17.90
2019-05-18T19:08:06.136Z,17.80
2019-05-18T19:10:35.611Z,17.80
2019-05-18T19:13:05.241Z,17.70
2019-05-18T19:15:34.791Z,17.60
2019-05-18T19:18:04.272Z,17.60
2019-05-18T19:20:33.825Z,17.50
2019-05-18T19:23:03.464Z,17.50
2019-05-18T19:25:33.578Z,17.40
2019-05-18T19:28:03.664Z,17.40
2019-05-18T19:30:33.592Z,17.30
2019-05-18T19:33:03.272Z,17.30
2019-05-18T19:35:32.971Z,17.30
2019-05-18T19:38:02.751Z,17.20
2019-05-18T19:40:32.650Z,17.20
2019-05-18T19:43:02.421Z,17.20
2019-05-18T19:45:31.985Z,16.80
2019-05-18T19:48:01.564Z,17.10
2019-05-18T19:50:31.724Z,17.00
2019-05-18T19:53:01.352Z,17.10
2019-05-18T19:55:31.633Z,17.00
2019-05-18T19:58:08.445Z,16.90
2019-05-18T20:00:32.495Z,16.90
2019-05-18T20:03:02.365Z,16.90
2019-05-18T20:05:31.854Z,16.80
2019-05-18T20:08:01.641Z,16.80
2019-05-18T20:10:31.613Z,16.80
2019-05-18T20:13:01.569Z,16.70
2019-05-18T20:15:31.643Z,16.70
2019-05-18T20:18:01.456Z,16.70
2019-05-18T20:20:31.556Z,16.60
2019-05-18T20:23:01.080Z,16.60
2019-05-18T20:25:35.183Z,16.50
2019-05-18T20:28:04.817Z,16.50
2019-05-18T20:30:34.528Z,16.50
2019-05-18T20:33:04.023Z,16.40
2019-05-18T20:35:33.699Z,16.40
2019-05-18T20:38:03.504Z,16.30
2019-05-18T20:40:33.584Z,16.20
2019-05-18T20:43:03.347Z,16.10
2019-05-18T20:45:32.901Z,16.10
2019-05-18T20:48:02.436Z,16.00
2019-05-18T20:50:32.011Z,16.00
2019-05-18T20:53:01.493Z,15.90
2019-05-18T20:55:31.698Z,15.90
2019-05-18T20:58:01.520Z,15.90
2019-05-18T21:00:31.298Z,15.80
2019-05-18T21:03:00.831Z,15.80
2019-05-18T21:05:30.612Z,15.70
2019-05-18T21:08:01.055Z,15.70
2019-05-18T21:10:30.775Z,15.60
2019-05-18T21:13:00.469Z,15.60
2019-05-18T21:15:29.942Z,15.50
2019-05-18T21:17:59.538Z,15.50
2019-05-18T21:20:29.018Z,15.40
2019-05-18T21:22:58.901Z,15.40
2019-05-18T21:25:28.686Z,15.40
2019-05-18T21:27:58.508Z,15.40
2019-05-18T21:30:27.974Z,15.40
2019-05-18T21:32:57.464Z,15.40
2019-05-18T21:35:26.954Z,15.30
2019-05-18T21:37:56.603Z,15.30
2019-05-18T21:40:26.426Z,15.20
2019-05-18T21:42:56.056Z,15.20
2019-05-18T21:45:25.723Z,15.20
2019-05-18T21:47:55.404Z,15.20
2019-05-18T21:50:24.874Z,15.10
2019-05-18T21:52:54.557Z,15.00
2019-05-18T21:55:24.018Z,15.00
2019-05-18T21:57:53.523Z,15.00
2019-05-18T22:00:23.991Z,15.00
2019-05-18T22:02:53.545Z,14.90
2019-05-18T22:05:22.967Z,14.90
2019-05-18T22:07:52.616Z,14.90
2019-05-18T22:10:25.971Z,14.90
2019-05-18T22:12:54.720Z,14.90
2019-05-18T22:15:24.148Z,14.90
2019-05-18T22:18:05.876Z,14.90
2019-05-18T22:20:39.965Z,14.80
2019-05-18T22:23:07.028Z,14.80
2019-05-18T22:25:36.731Z,14.80
2019-05-18T22:28:06.203Z,14.70
2019-05-18T22:30:35.772Z,14.70
2019-05-18T22:33:05.212Z,14.70
2019-05-18T22:35:34.832Z,14.70
2019-05-18T22:38:04.265Z,14.70
2019-05-18T22:40:33.815Z,14.60
2019-05-18T22:43:03.581Z,14.60
2019-05-18T22:45:32.979Z,14.60
2019-05-18T22:48:02.608Z,14.60
2019-05-18T22:50:32.094Z,14.50
2019-05-18T22:53:01.674Z,14.40
2019-05-18T22:55:31.195Z,14.40
2019-05-18T22:58:00.771Z,14.40
2019-05-18T23:00:30.424Z,14.30
2019-05-18T23:03:00.113Z,14.30
2019-05-18T23:05:29.803Z,14.30
2019-05-18T23:07:59.304Z,14.30
2019-05-18T23:10:28.762Z,14.30
2019-05-18T23:12:58.246Z,14.30
2019-05-18T23:15:27.887Z,14.30
2019-05-18T23:17:57.659Z,14.20
2019-05-18T23:20:27.024Z,14.20
2019-05-18T23:22:56.641Z,14.20
2019-05-18T23:25:26.104Z,14.10
2019-05-18T23:27:55.675Z,14.10
2019-05-18T23:30:25.184Z,14.10
2019-05-18T23:32:54.715Z,14.00
2019-05-18T23:35:24.371Z,14.00
2019-05-18T23:37:53.849Z,14.00
2019-05-18T23:40:23.353Z,14.00
2019-05-18T23:42:52.810Z,14.00
2019-05-18T23:45:22.903Z,13.90
2019-05-18T23:47:52.593Z,13.90
2019-05-18T23:50:22.027Z,13.80
2019-05-18T23:52:51.756Z,13.80
2019-05-18T23:55:21.265Z,13.80
2019-05-18T23:57:50.894Z,13.70
